Windflight — WDF6324 — position and weather

sailwx.info

Track history (hours):
 
Tides and Currents Weather Stations Pressure Air Temp Water Temp Dewpoint Dewpoint Depression Visibility Wind Speed Wind Dir Waves Ship Positions

Windflight

More information available from US FCC via Universal Licensing System and Coast Guard Vessel Documentation Center.

Last reported at 2014-Jul-22 22:30 UTC. Time now 2014-Jul-29 12:52 UTC.
Position N 50°40' W 126°28'.

Length 21 m.

Type: Pleasure craft. MMSI: 367473060.

Date/timePositionNaut miles runAvg speedWind from/ knotsBaromVisibWave heightAir tempDewpointWater temp
2014-Jul-22 22:30N 50°40' W 126°28'1 1.4
2014-Jul-22 21:31N 50°40' W 126°30'10 3.0
2014-Jul-22 18:05N 50°44' W 126°45'5 8.3
2014-Jul-22 17:30N 50°47' W 126°51'5 5.0
2014-Jul-22 16:25N 50°52' W 126°55'1 0.1
2014-Jul-21 16:33N 50°53' W 126°54'8 7.6
2014-Jul-21 15:33N 50°48' W 127°03'8 7.8
2014-Jul-21 14:33N 50°52' W 127°13'4 3.5
2014-Jul-21 13:30N 50°54' W 127°18'0 0.0
2014-Jul-21 12:24N 50°54' W 127°18'0 0.0
2014-Jul-21 11:18N 50°54' W 127°18'0 0.0
2014-Jul-21 10:24N 50°54' W 127°18'0 0.0
2014-Jul-21 09:18N 50°54' W 127°18'0 0.0
2014-Jul-21 08:30N 50°54' W 127°18'0 0.0
2014-Jul-21 07:30N 50°54' W 127°18'0 0.0
2014-Jul-21 06:30N 50°54' W 127°17'0 0.0
2014-Jul-21 05:30N 50°54' W 127°17'0 0.0
2014-Jul-21 04:30N 50°54' W 127°17'0 0.0
2014-Jul-21 03:30N 50°54' W 127°17'0 0.0
2014-Jul-21 02:30N 50°54' W 127°17'0 0.0
2014-Jul-21 01:30N 50°54' W 127°17'0 0.0
2014-Jul-21 00:24N 50°54' W 127°17'0 0.0
2014-Jul-20 23:30N 50°54' W 127°17'0 0.0
2014-Jul-20 22:18N 50°54' W 127°17'0 0.0
2014-Jul-20 21:30N 50°54' W 127°17'0 0.0
2014-Jul-20 20:30N 50°54' W 127°17'1 1.3
2014-Jul-20 19:33N 50°53' W 127°19'8 8.0
2014-Jul-20 18:33N 50°57' W 127°30'8 8.2
2014-Jul-20 17:33N 51°03' W 127°39'8 8.2
2014-Jul-20 16:33N 51°09' W 127°48'16 7.7
2014-Jul-20 14:33N 51°24' W 127°48'8 0.4
2014-Jul-19 21:22N 51°31' W 127°42'  
2014-Jul-15 18:31N 52°06' W 128°08'4 3.8
2014-Jul-15 17:33N 52°09' W 128°05'0 0.0
2014-Jul-15 16:30N 52°09' W 128°05'0 0.0
2014-Jul-15 15:33N 52°09' W 128°05'0 0.0
2014-Jul-15 14:12N 52°09' W 128°05'0 0.0
2014-Jul-15 13:33N 52°09' W 128°05'0 0.0
2014-Jul-15 12:24N 52°09' W 128°05'0 0.0
2014-Jul-15 11:30N 52°09' W 128°05'0 0.0
2014-Jul-15 10:33N 52°09' W 128°05'0 0.0
2014-Jul-15 09:09N 52°09' W 128°05'0 0.0
2014-Jul-15 08:24N 52°09' W 128°05'0 0.0
2014-Jul-15 07:33N 52°09' W 128°05'0 0.0
2014-Jul-15 06:33N 52°09' W 128°05'0 0.0
2014-Jul-15 05:33N 52°09' W 128°05'0 0.0
2014-Jul-15 04:21N 52°09' W 128°05'0 0.0
2014-Jul-15 03:30N 52°09' W 128°05'0 0.0
2014-Jul-15 02:30N 52°09' W 128°05'0 0.0
2014-Jul-15 01:30N 52°09' W 128°05'0 0.0
2014-Jul-15 00:21N 52°09' W 128°05'0 0.0
2014-Jul-14 23:15N 52°09' W 128°05'0 0.0
2014-Jul-14 22:30N 52°09' W 128°05'0 0.0
2014-Jul-14 21:30N 52°09' W 128°05'0 0.0
2014-Jul-14 20:33N 52°09' W 128°05'4 3.7
2014-Jul-14 19:33N 52°12' W 128°07'  
Track history (hours):
 
Tides and Currents Weather Stations Pressure Air Temp Water Temp Dewpoint Dewpoint Depression Visibility Wind Speed Wind Dir Waves Ship Positions

Windflight

More information available from US FCC via Universal Licensing System and Coast Guard Vessel Documentation Center.

Last reported at 2014-Jul-22 22:30 UTC. Time now 2014-Jul-29 12:52 UTC.
Position N 50°40' W 126°28'.

Length 21 m.

Type: Pleasure craft. MMSI: 367473060.

Date/timePositionNaut miles runAvg speedWind from/ knotsBaromVisibWave heightAir tempDewpointWater temp
2014-Jul-22 22:30N 50°40' W 126°28'1 1.4
2014-Jul-22 21:31N 50°40' W 126°30'10 3.0
2014-Jul-22 18:05N 50°44' W 126°45'5 8.3
2014-Jul-22 17:30N 50°47' W 126°51'5 5.0
2014-Jul-22 16:25N 50°52' W 126°55'1 0.1
2014-Jul-21 16:33N 50°53' W 126°54'8 7.6
2014-Jul-21 15:33N 50°48' W 127°03'8 7.8
2014-Jul-21 14:33N 50°52' W 127°13'4 3.5
2014-Jul-21 13:30N 50°54' W 127°18'0 0.0
2014-Jul-21 12:24N 50°54' W 127°18'0 0.0
2014-Jul-21 11:18N 50°54' W 127°18'0 0.0
2014-Jul-21 10:24N 50°54' W 127°18'0 0.0
2014-Jul-21 09:18N 50°54' W 127°18'0 0.0
2014-Jul-21 08:30N 50°54' W 127°18'0 0.0
2014-Jul-21 07:30N 50°54' W 127°18'0 0.0
2014-Jul-21 06:30N 50°54' W 127°17'0 0.0
2014-Jul-21 05:30N 50°54' W 127°17'0 0.0
2014-Jul-21 04:30N 50°54' W 127°17'0 0.0
2014-Jul-21 03:30N 50°54' W 127°17'0 0.0
2014-Jul-21 02:30N 50°54' W 127°17'0 0.0
2014-Jul-21 01:30N 50°54' W 127°17'0 0.0
2014-Jul-21 00:24N 50°54' W 127°17'0 0.0
2014-Jul-20 23:30N 50°54' W 127°17'0 0.0
2014-Jul-20 22:18N 50°54' W 127°17'0 0.0
2014-Jul-20 21:30N 50°54' W 127°17'0 0.0
2014-Jul-20 20:30N 50°54' W 127°17'1 1.3
2014-Jul-20 19:33N 50°53' W 127°19'8 8.0
2014-Jul-20 18:33N 50°57' W 127°30'8 8.2
2014-Jul-20 17:33N 51°03' W 127°39'8 8.2
2014-Jul-20 16:33N 51°09' W 127°48'16 7.7
2014-Jul-20 14:33N 51°24' W 127°48'8 0.4
2014-Jul-19 21:22N 51°31' W 127°42'  
2014-Jul-15 18:31N 52°06' W 128°08'4 3.8
2014-Jul-15 17:33N 52°09' W 128°05'0 0.0
2014-Jul-15 16:30N 52°09' W 128°05'0 0.0
2014-Jul-15 15:33N 52°09' W 128°05'0 0.0
2014-Jul-15 14:12N 52°09' W 128°05'0 0.0
2014-Jul-15 13:33N 52°09' W 128°05'0 0.0
2014-Jul-15 12:24N 52°09' W 128°05'0 0.0
2014-Jul-15 11:30N 52°09' W 128°05'0 0.0
2014-Jul-15 10:33N 52°09' W 128°05'0 0.0
2014-Jul-15 09:09N 52°09' W 128°05'0 0.0
2014-Jul-15 08:24N 52°09' W 128°05'0 0.0
2014-Jul-15 07:33N 52°09' W 128°05'0 0.0
2014-Jul-15 06:33N 52°09' W 128°05'0 0.0
2014-Jul-15 05:33N 52°09' W 128°05'0 0.0
2014-Jul-15 04:21N 52°09' W 128°05'0 0.0
2014-Jul-15 03:30N 52°09' W 128°05'0 0.0
2014-Jul-15 02:30N 52°09' W 128°05'0 0.0
2014-Jul-15 01:30N 52°09' W 128°05'0 0.0
2014-Jul-15 00:21N 52°09' W 128°05'0 0.0
2014-Jul-14 23:15N 52°09' W 128°05'0 0.0
2014-Jul-14 22:30N 52°09' W 128°05'0 0.0
2014-Jul-14 21:30N 52°09' W 128°05'0 0.0
2014-Jul-14 20:33N 52°09' W 128°05'4 3.7
2014-Jul-14 19:33N 52°12' W 128°07'  

Dump ship's entire track history